Terminal Aerodrome Forecast
Issued by NWS

Home | Current Version | Previous Version | Text Only | Print | Product List | Glossary On
Versions: 1 2 3 4 5 6 7 8 9 10 11 12 13 14 15 16 17 18
000
FTUS43 KIND 011200 AAA
TAFLAF
TAF AMD
KLAF 011255Z 0113/0212 VRB03KT 1SM -SN OVC015
      TEMPO 0113/0116 1/2SM SN OVC009
     FM011600 VRB05KT 2SM -SN BR OVC009
     FM012000 28007KT 3SM BR VCSH OVC020
     FM012300 29009KT 5SM BR BKN025
     FM020500 30007KT P6SM SCT025 SCT250
      AMD LTD TO CLD VIS AND WIND TIL 011400=

USA.gov is the U.S. government's official web portal to all federal, state and local government web resources and services.